Time,TemperatureF,DewpointF,PressureIn,WindDirection,WindDirectionDegrees,WindSpeedMPH,WindSpeedGustMPH,Humidity,HourlyPrecipIn,Conditions,Clouds,dailyrainin,SoftwareType,DateUTC
2016-12-02 00:05:00,28.8,23.1,30.13,NNW,342,0.0,0.0,79,0.00,,,0.00,Wunderground v.1.15,2016-12-02 07:05:00,
2016-12-02 00:15:00,28.8,23.1,30.13,NNW,342,0.0,0.0,79,0.00,,,0.00,Wunderground v.1.15,2016-12-02 07:15:00,
2016-12-02 00:20:00,28.9,23.5,30.13,NNW,342,0.0,0.0,80,0.00,,,0.00,Wunderground v.1.15,2016-12-02 07:20:00,
2016-12-02 00:25:00,28.9,23.2,30.13,NNW,342,0.0,0.0,79,0.00,,,0.00,Wunderground v.1.15,2016-12-02 07:25:00,
2016-12-02 00:30:00,28.9,23.2,30.13,NNW,342,0.0,0.0,79,0.00,,,0.00,Wunderground v.1.15,2016-12-02 07:30:00,
2016-12-02 00:45:00,29.2,23.5,30.13,NNW,342,0.0,0.0,79,0.00,,,0.00,Wunderground v.1.15,2016-12-02 07:45:00,
2016-12-02 00:50:00,29.3,23.6,30.13,NNW,342,0.0,0.0,79,0.00,,,0.00,Wunderground v.1.15,2016-12-02 07:50:00,
2016-12-02 00:55:00,29.3,23.6,30.13,NNW,342,0.0,0.0,79,0.00,,,0.00,Wunderground v.1.15,2016-12-02 07:55:00,
2016-12-02 01:00:00,29.6,23.9,30.12,NNW,342,0.0,0.0,79,0.00,,,0.00,Wunderground v.1.15,2016-12-02 08:00:00,
2016-12-02 01:05:00,29.7,24.0,30.12,NNW,342,0.0,0.0,79,0.00,,,0.00,Wunderground v.1.15,2016-12-02 08:05:00,
2016-12-02 01:15:00,29.7,24.0,30.13,NNW,342,0.0,0.0,79,0.00,,,0.00,Wunderground v.1.15,2016-12-02 08:15:00,
2016-12-02 01:20:00,29.7,23.7,30.12,NNW,342,0.0,0.0,78,0.00,,,0.00,Wunderground v.1.15,2016-12-02 08:20:00,
2016-12-02 01:25:00,29.6,23.9,30.12,NNW,342,0.0,0.0,79,0.00,,,0.00,Wunderground v.1.15,2016-12-02 08:25:00,
2016-12-02 01:30:00,29.5,23.8,30.12,NNW,342,0.0,0.0,79,0.00,,,0.00,Wunderground v.1.15,2016-12-02 08:30:00,
2016-12-02 01:35:00,29.4,23.7,30.13,NNW,342,0.0,0.0,79,0.00,,,0.00,Wunderground v.1.15,2016-12-02 08:35:00,
2016-12-02 01:40:00,29.3,23.6,30.13,NNW,342,0.0,0.0,79,0.00,,,0.00,Wunderground v.1.15,2016-12-02 08:40:00,
2016-12-02 01:45:00,29.2,23.5,30.13,NNW,342,0.0,0.0,79,0.00,,,0.00,Wunderground v.1.15,2016-12-02 08:45:00,
2016-12-02 01:50:00,29.2,23.5,30.13,NNW,342,0.0,0.0,79,0.00,,,0.00,Wunderground v.1.15,2016-12-02 08:50:00,
2016-12-02 01:55:00,29.2,23.5,30.13,NNW,342,0.0,0.0,79,0.00,,,0.00,Wunderground v.1.15,2016-12-02 08:55:00,
2016-12-02 02:00:00,29.1,23.4,30.13,NNW,342,0.0,0.0,79,0.00,,,0.00,Wunderground v.1.15,2016-12-02 09:00:00,
2016-12-02 02:05:00,29.0,23.6,30.13,NNW,342,0.0,0.0,80,0.00,,,0.00,Wunderground v.1.15,2016-12-02 09:05:00,
2016-12-02 02:15:00,28.8,23.1,30.13,NNW,342,0.0,0.0,79,0.00,,,0.00,Wunderground v.1.15,2016-12-02 09:15:00,
2016-12-02 02:20:00,28.8,23.4,30.12,NNW,342,0.0,0.0,80,0.00,,,0.00,Wunderground v.1.15,2016-12-02 09:20:00,
2016-12-02 02:25:00,28.8,23.4,30.12,NNW,342,0.0,0.0,80,0.00,,,0.00,Wunderground v.1.15,2016-12-02 09:25:00,
2016-12-02 02:30:00,28.9,23.5,30.12,NNW,342,0.0,0.0,80,0.00,,,0.00,Wunderground v.1.15,2016-12-02 09:30:00,
2016-12-02 02:35:00,29.1,23.7,30.12,NNW,342,0.0,0.0,80,0.00,,,0.00,Wunderground v.1.15,2016-12-02 09:35:00,
2016-12-02 02:40:00,29.0,23.6,30.12,NNW,342,0.0,0.0,80,0.00,,,0.00,Wunderground v.1.15,2016-12-02 09:40:00,
2016-12-02 02:50:00,28.8,23.4,30.12,NNW,342,0.0,0.0,80,0.00,,,0.00,Wunderground v.1.15,2016-12-02 09:50:00,
2016-12-02 02:55:00,28.7,23.3,30.11,NNW,342,0.0,0.0,80,0.00,,,0.00,Wunderground v.1.15,2016-12-02 09:55:00,
2016-12-02 03:00:00,28.7,23.3,30.11,NNW,342,0.0,0.0,80,0.00,,,0.00,Wunderground v.1.15,2016-12-02 10:00:00,
2016-12-02 03:10:00,28.5,23.1,30.11,NNW,342,0.0,0.0,80,0.00,,,0.00,Wunderground v.1.15,2016-12-02 10:10:00,
2016-12-02 03:15:00,28.5,23.1,30.11,NNW,342,0.0,0.0,80,0.00,,,0.00,Wunderground v.1.15,2016-12-02 10:15:00,
2016-12-02 03:20:00,28.5,23.4,30.11,NNW,342,0.0,0.0,81,0.00,,,0.00,Wunderground v.1.15,2016-12-02 10:20:00,
2016-12-02 03:30:00,28.4,23.3,30.10,NNW,342,0.0,0.0,81,0.00,,,0.00,Wunderground v.1.15,2016-12-02 10:30:00,
2016-12-02 03:35:00,28.3,23.2,30.10,NNW,342,0.0,0.0,81,0.00,,,0.00,Wunderground v.1.15,2016-12-02 10:35:00,
2016-12-02 03:40:00,28.3,23.2,30.10,NNW,342,0.0,0.0,81,0.00,,,0.00,Wunderground v.1.15,2016-12-02 10:40:00,
2016-12-02 03:45:00,28.3,23.2,30.10,NNW,342,0.0,0.0,81,0.00,,,0.00,Wunderground v.1.15,2016-12-02 10:45:00,
2016-12-02 03:55:00,28.2,23.1,30.10,NNW,342,0.0,0.0,81,0.00,,,0.00,Wunderground v.1.15,2016-12-02 10:55:00,
2016-12-02 04:00:00,28.3,23.2,30.09,NNW,342,0.0,0.0,81,0.00,,,0.00,Wunderground v.1.15,2016-12-02 11:00:00,
2016-12-02 04:05:00,28.3,23.2,30.10,NNW,342,0.0,0.0,81,0.00,,,0.00,Wunderground v.1.15,2016-12-02 11:05:00,
2016-12-02 04:15:00,27.9,22.8,30.10,NNW,342,0.0,0.0,81,0.00,,,0.00,Wunderground v.1.15,2016-12-02 11:15:00,
2016-12-02 04:20:00,27.8,22.7,30.10,NNW,342,0.0,0.0,81,0.00,,,0.00,Wunderground v.1.15,2016-12-02 11:20:00,
2016-12-02 04:25:00,27.6,22.5,30.10,NNW,342,0.0,0.0,81,0.00,,,0.00,Wunderground v.1.15,2016-12-02 11:25:00,
2016-12-02 04:35:00,27.0,21.9,30.09,NNW,342,0.0,0.0,81,0.00,,,0.00,Wunderground v.1.15,2016-12-02 11:35:00,
2016-12-02 04:40:00,26.6,21.6,30.09,NNW,342,0.0,0.0,81,0.00,,,0.00,Wunderground v.1.15,2016-12-02 11:40:00,
2016-12-02 04:45:00,26.5,21.5,30.09,NNW,342,0.0,0.0,81,0.00,,,0.00,Wunderground v.1.15,2016-12-02 11:45:00,
2016-12-02 04:50:00,26.2,21.5,30.09,NNW,342,0.0,0.0,82,0.00,,,0.00,Wunderground v.1.15,2016-12-02 11:50:00,
2016-12-02 04:55:00,26.1,21.4,30.09,NNW,342,0.0,0.0,82,0.00,,,0.00,Wunderground v.1.15,2016-12-02 11:55:00,
2016-12-02 05:00:00,26.1,21.4,30.09,NNW,342,0.0,0.0,82,0.00,,,0.00,Wunderground v.1.15,2016-12-02 12:00:00,
2016-12-02 05:05:00,26.1,21.4,30.09,NNW,342,0.0,0.0,82,0.00,,,0.00,Wunderground v.1.15,2016-12-02 12:05:00,
2016-12-02 05:15:00,25.9,21.2,30.09,NNW,342,0.0,0.0,82,0.00,,,0.00,Wunderground v.1.15,2016-12-02 12:15:00,
2016-12-02 05:20:00,25.2,20.5,30.09,NNW,342,0.0,0.0,82,0.00,,,0.00,Wunderground v.1.15,2016-12-02 12:20:00,
2016-12-02 05:30:00,24.2,19.5,30.10,NNW,342,0.0,0.0,82,0.00,,,0.00,Wunderground v.1.15,2016-12-02 12:30:00,
2016-12-02 05:40:00,23.9,19.2,30.10,NNW,342,0.0,0.0,82,0.00,,,0.00,Wunderground v.1.15,2016-12-02 12:40:00,
2016-12-02 05:45:00,23.7,19.0,30.10,NNW,342,0.0,0.0,82,0.00,,,0.00,Wunderground v.1.15,2016-12-02 12:45:00,
2016-12-02 05:50:00,23.4,18.7,30.10,NNW,342,0.0,0.0,82,0.00,,,0.00,Wunderground v.1.15,2016-12-02 12:50:00,
2016-12-02 05:55:00,23.4,19.0,30.11,NNW,342,0.0,0.0,83,0.00,,,0.00,Wunderground v.1.15,2016-12-02 12:55:00,
2016-12-02 06:00:00,23.4,19.0,30.11,NNW,342,0.0,0.0,83,0.00,,,0.00,Wunderground v.1.15,2016-12-02 13:00:00,
2016-12-02 06:05:00,23.4,19.0,30.12,NNW,342,0.0,0.0,83,0.00,,,0.00,Wunderground v.1.15,2016-12-02 13:05:00,
2016-12-02 06:15:00,23.4,19.0,30.12,NNW,342,0.0,0.0,83,0.00,,,0.00,Wunderground v.1.15,2016-12-02 13:15:00,
2016-12-02 06:20:00,23.4,19.0,30.12,NNW,342,0.0,0.0,83,0.00,,,0.00,Wunderground v.1.15,2016-12-02 13:20:00,
2016-12-02 06:25:00,23.5,19.1,30.12,NNW,342,0.0,0.0,83,0.00,,,0.00,Wunderground v.1.15,2016-12-02 13:25:00,
2016-12-02 06:30:00,23.6,19.5,30.12,NNW,342,0.0,0.0,84,0.00,,,0.00,Wunderground v.1.15,2016-12-02 13:30:00,
2016-12-02 06:35:00,23.9,19.8,30.13,NNW,342,0.0,0.0,84,0.00,,,0.00,Wunderground v.1.15,2016-12-02 13:35:00,
2016-12-02 06:45:00,24.3,20.2,30.13,NNW,342,0.0,0.0,84,0.00,,,0.00,Wunderground v.1.15,2016-12-02 13:45:00,
2016-12-02 06:50:00,24.4,20.3,30.13,NNW,342,0.0,0.0,84,0.00,,,0.00,Wunderground v.1.15,2016-12-02 13:50:00,
2016-12-02 06:55:00,24.4,20.3,30.13,NNW,342,0.0,0.0,84,0.00,,,0.00,Wunderground v.1.15,2016-12-02 13:55:00,
2016-12-02 07:00:00,24.4,20.3,30.13,NNW,342,0.0,0.0,84,0.00,,,0.00,Wunderground v.1.15,2016-12-02 14:00:00,
2016-12-02 07:05:00,24.4,20.3,30.14,NNW,342,0.0,0.0,84,0.00,,,0.00,Wunderground v.1.15,2016-12-02 14:05:00,
2016-12-02 07:15:00,24.5,20.4,30.14,NNW,342,0.0,0.0,84,0.00,,,0.00,Wunderground v.1.15,2016-12-02 14:15:00,
2016-12-02 07:20:00,24.5,20.4,30.14,NNW,342,0.0,0.0,84,0.00,,,0.00,Wunderground v.1.15,2016-12-02 14:20:00,
2016-12-02 07:30:00,24.6,20.5,30.14,NNW,342,0.0,0.0,84,0.00,,,0.00,Wunderground v.1.15,2016-12-02 14:30:00,
2016-12-02 07:35:00,24.7,20.6,30.14,NNW,342,0.0,0.0,84,0.00,,,0.00,Wunderground v.1.15,2016-12-02 14:35:00,
2016-12-02 07:45:00,25.0,20.8,30.14,NNW,342,0.0,0.0,84,0.00,,,0.00,Wunderground v.1.15,2016-12-02 14:45:00,
2016-12-02 07:55:00,25.3,21.1,30.14,NNW,342,0.0,0.0,84,0.00,,,0.00,Wunderground v.1.15,2016-12-02 14:55:00,
2016-12-02 08:00:00,25.5,21.3,30.14,NNW,342,0.0,0.0,84,0.00,,,0.00,Wunderground v.1.15,2016-12-02 15:00:00,
2016-12-02 08:05:00,25.8,21.6,30.14,NNW,342,0.0,0.0,84,0.00,,,0.00,Wunderground v.1.15,2016-12-02 15:05:00,
2016-12-02 08:15:00,26.3,22.1,30.15,NNW,342,0.0,0.0,84,0.00,,,0.00,Wunderground v.1.15,2016-12-02 15:15:00,
2016-12-02 08:20:00,26.6,22.4,30.15,NNW,342,0.0,0.0,84,0.00,,,0.00,Wunderground v.1.15,2016-12-02 15:20:00,
2016-12-02 08:25:00,27.0,23.1,30.15,NNW,342,0.0,0.0,85,0.00,,,0.00,Wunderground v.1.15,2016-12-02 15:25:00,
2016-12-02 08:30:00,27.3,23.1,30.15,NNW,342,0.0,0.0,84,0.00,,,0.00,Wunderground v.1.15,2016-12-02 15:30:00,
2016-12-02 08:35:00,27.5,23.3,30.16,NNW,342,0.0,0.0,84,0.00,,,0.00,Wunderground v.1.15,2016-12-02 15:35:00,
2016-12-02 08:40:00,27.7,23.8,30.16,NNW,342,0.0,0.0,85,0.00,,,0.00,Wunderground v.1.15,2016-12-02 15:40:00,
2016-12-02 08:45:00,27.8,23.6,30.16,NNW,342,0.0,0.0,84,0.00,,,0.00,Wunderground v.1.15,2016-12-02 15:45:00,
2016-12-02 08:50:00,28.0,23.8,30.16,NNW,342,0.0,0.0,84,0.00,,,0.00,Wunderground v.1.15,2016-12-02 15:50:00,
2016-12-02 09:00:00,28.4,24.2,30.16,NNW,342,0.0,0.0,84,0.00,,,0.00,Wunderground v.1.15,2016-12-02 16:00:00,
2016-12-02 09:05:00,28.6,24.4,30.16,NNW,342,0.0,0.0,84,0.00,,,0.00,Wunderground v.1.15,2016-12-02 16:05:00,
2016-12-02 09:15:00,29.2,25.0,30.17,NNW,342,0.0,0.0,84,0.00,,,0.00,Wunderground v.1.15,2016-12-02 16:15:00,
2016-12-02 09:20:00,29.4,25.2,30.17,NNW,342,0.0,0.0,84,0.00,,,0.00,Wunderground v.1.15,2016-12-02 16:20:00,
2016-12-02 09:30:00,30.2,25.7,30.18,NNW,342,0.0,0.0,83,0.00,,,0.00,Wunderground v.1.15,2016-12-02 16:30:00,
2016-12-02 09:35:00,30.5,26.0,30.18,NNW,342,0.0,0.0,83,0.00,,,0.00,Wunderground v.1.15,2016-12-02 16:35:00,
2016-12-02 09:40:00,30.6,25.8,30.18,NNW,342,0.0,0.0,82,0.00,,,0.00,Wunderground v.1.15,2016-12-02 16:40:00,
2016-12-02 09:50:00,31.4,26.2,30.18,NNW,342,0.0,0.0,81,0.00,,,0.00,Wunderground v.1.15,2016-12-02 16:50:00,
2016-12-02 09:55:00,31.8,26.3,30.18,NNW,342,0.0,0.0,80,0.00,,,0.00,Wunderground v.1.15,2016-12-02 16:55:00,
2016-12-02 10:00:00,32.3,26.5,30.18,NNW,342,0.0,0.0,79,0.00,,,0.00,Wunderground v.1.15,2016-12-02 17:00:00,
2016-12-02 10:05:00,32.8,26.7,30.18,NNW,342,0.0,0.0,78,0.00,,,0.00,Wunderground v.1.15,2016-12-02 17:05:00,
2016-12-02 10:15:00,33.9,26.8,30.18,NNW,342,0.0,0.0,75,0.00,,,0.00,Wunderground v.1.15,2016-12-02 17:15:00,
2016-12-02 10:20:00,34.4,26.3,30.18,NNW,342,0.0,0.0,72,0.00,,,0.00,Wunderground v.1.15,2016-12-02 17:20:00,
2016-12-02 10:25:00,34.7,25.9,30.18,NNW,342,0.0,0.0,70,0.00,,,0.00,Wunderground v.1.15,2016-12-02 17:25:00,
2016-12-02 10:30:00,35.2,26.0,30.18,NNW,342,0.0,0.0,69,0.00,,,0.00,Wunderground v.1.15,2016-12-02 17:30:00,
2016-12-02 10:40:00,36.1,25.8,30.18,NNW,342,0.0,0.0,66,0.00,,,0.00,Wunderground v.1.15,2016-12-02 17:40:00,
2016-12-02 10:45:00,36.1,25.5,30.18,NNW,342,0.0,0.0,65,0.00,,,0.00,Wunderground v.1.15,2016-12-02 17:45:00,
2016-12-02 10:50:00,36.3,25.3,30.18,NNW,342,0.0,0.0,64,0.00,,,0.00,Wunderground v.1.15,2016-12-02 17:50:00,
2016-12-02 10:55:00,36.6,25.2,30.18,NNW,342,0.0,0.0,63,0.00,,,0.00,Wunderground v.1.15,2016-12-02 17:55:00,
2016-12-02 11:00:00,36.9,25.5,30.18,NNW,342,0.0,0.0,63,0.00,,,0.00,Wunderground v.1.15,2016-12-02 18:00:00,
2016-12-02 11:05:00,37.3,25.5,30.17,NNW,342,0.0,0.0,62,0.00,,,0.00,Wunderground v.1.15,2016-12-02 18:05:00,
2016-12-02 11:15:00,37.8,25.5,30.17,NNW,342,0.0,0.0,61,0.00,,,0.00,Wunderground v.1.15,2016-12-02 18:15:00,
2016-12-02 11:20:00,38.0,24.9,30.17,NNW,341,0.0,2.0,59,0.00,,,0.00,Wunderground v.1.15,2016-12-02 18:20:00,
2016-12-02 11:25:00,37.9,25.2,30.17,NW,304,1.0,2.0,60,0.00,,,0.00,Wunderground v.1.15,2016-12-02 18:25:00,
2016-12-02 11:30:00,38.3,24.0,30.16,NW,304,1.0,1.0,56,0.00,,,0.00,Wunderground v.1.15,2016-12-02 18:30:00,
2016-12-02 11:35:00,38.7,23.9,30.16,NW,304,0.0,1.0,55,0.00,,,0.00,Wunderground v.1.15,2016-12-02 18:35:00,